sensor_id;sensor_type;location;lat;lon;timestamp;P1;durP1;ratioP1;P2;durP2;ratioP2
48263;SDS011;34086;51.076;13.722;2022-08-21T00:00:44;98.07;;;46.53;;
48263;SDS011;34086;51.076;13.722;2022-08-21T00:01:45;95.20;;;44.83;;
48263;SDS011;34086;51.076;13.722;2022-08-21T00:02:47;92.72;;;42.67;;
48263;SDS011;34086;51.076;13.722;2022-08-21T00:03:50;73.20;;;39.20;;
48263;SDS011;34086;51.076;13.722;2022-08-21T00:04:51;82.97;;;41.97;;
48263;SDS011;34086;51.076;13.722;2022-08-21T00:05:52;89.10;;;43.42;;
48263;SDS011;34086;51.076;13.722;2022-08-21T00:06:53;104.90;;;45.42;;
48263;SDS011;34086;51.076;13.722;2022-08-21T00:07:54;114.82;;;49.65;;
48263;SDS011;34086;51.076;13.722;2022-08-21T00:08:55;116.97;;;49.88;;
48263;SDS011;34086;51.076;13.722;2022-08-21T00:09:55;102.20;;;46.78;;
48263;SDS011;34086;51.076;13.722;2022-08-21T00:10:56;80.65;;;43.83;;
48263;SDS011;34086;51.076;13.722;2022-08-21T00:11:57;95.10;;;44.42;;
48263;SDS011;34086;51.076;13.722;2022-08-21T00:12:58;92.20;;;44.30;;
48263;SDS011;34086;51.076;13.722;2022-08-21T00:14:00;100.80;;;46.67;;
48263;SDS011;34086;51.076;13.722;2022-08-21T00:15:03;97.15;;;45.05;;
48263;SDS011;34086;51.076;13.722;2022-08-21T00:16:05;105.05;;;47.45;;
48263;SDS011;34086;51.076;13.722;2022-08-21T00:17:05;103.32;;;46.72;;
48263;SDS011;34086;51.076;13.722;2022-08-21T00:18:07;129.77;;;52.38;;
48263;SDS011;34086;51.076;13.722;2022-08-21T00:19:10;124.68;;;54.25;;
48263;SDS011;34086;51.076;13.722;2022-08-21T00:20:12;101.78;;;49.20;;
48263;SDS011;34086;51.076;13.722;2022-08-21T00:21:14;98.35;;;46.38;;
48263;SDS011;34086;51.076;13.722;2022-08-21T00:22:16;110.88;;;49.63;;
48263;SDS011;34086;51.076;13.722;2022-08-21T00:23:17;100.25;;;45.30;;
48263;SDS011;34086;51.076;13.722;2022-08-21T00:24:18;95.20;;;44.80;;
48263;SDS011;34086;51.076;13.722;2022-08-21T00:25:20;112.40;;;49.28;;
48263;SDS011;34086;51.076;13.722;2022-08-21T00:26:21;132.93;;;54.33;;
48263;SDS011;34086;51.076;13.722;2022-08-21T00:27:22;104.32;;;48.58;;
48263;SDS011;34086;51.076;13.722;2022-08-21T00:28:23;91.13;;;44.97;;
48263;SDS011;34086;51.076;13.722;2022-08-21T00:29:23;100.63;;;46.13;;
48263;SDS011;34086;51.076;13.722;2022-08-21T00:30:25;81.35;;;42.75;;
48263;SDS011;34086;51.076;13.722;2022-08-21T00:31:26;92.75;;;43.35;;
48263;SDS011;34086;51.076;13.722;2022-08-21T00:32:27;83.25;;;41.97;;
48263;SDS011;34086;51.076;13.722;2022-08-21T00:33:28;86.65;;;42.95;;
48263;SDS011;34086;51.076;13.722;2022-08-21T00:34:29;88.68;;;40.80;;
48263;SDS011;34086;51.076;13.722;2022-08-21T00:35:31;83.22;;;40.88;;
48263;SDS011;34086;51.076;13.722;2022-08-21T00:36:34;128.25;;;50.03;;
48263;SDS011;34086;51.076;13.722;2022-08-21T00:37:35;90.20;;;44.53;;
48263;SDS011;34086;51.076;13.722;2022-08-21T00:38:36;83.70;;;42.13;;
48263;SDS011;34086;51.076;13.722;2022-08-21T00:39:37;83.72;;;42.08;;
48263;SDS011;34086;51.076;13.722;2022-08-21T00:40:40;88.00;;;42.47;;
48263;SDS011;34086;51.076;13.722;2022-08-21T00:41:50;87.43;;;44.72;;
48263;SDS011;34086;51.076;13.722;2022-08-21T00:42:51;105.63;;;48.30;;
48263;SDS011;34086;51.076;13.722;2022-08-21T00:43:51;111.40;;;50.67;;
48263;SDS011;34086;51.076;13.722;2022-08-21T00:44:52;97.40;;;48.40;;
48263;SDS011;34086;51.076;13.722;2022-08-21T00:45:53;97.00;;;48.13;;
48263;SDS011;34086;51.076;13.722;2022-08-21T00:46:55;103.88;;;48.25;;
48263;SDS011;34086;51.076;13.722;2022-08-21T00:47:56;97.75;;;47.53;;
48263;SDS011;34086;51.076;13.722;2022-08-21T00:48:56;123.28;;;51.83;;
48263;SDS011;34086;51.076;13.722;2022-08-21T00:49:57;116.82;;;51.63;;
48263;SDS011;34086;51.076;13.722;2022-08-21T00:51:02;153.73;;;59.10;;
48263;SDS011;34086;51.076;13.722;2022-08-21T00:52:03;153.52;;;58.28;;
48263;SDS011;34086;51.076;13.722;2022-08-21T00:53:06;122.68;;;54.55;;
48263;SDS011;34086;51.076;13.722;2022-08-21T00:54:10;115.25;;;52.83;;
48263;SDS011;34086;51.076;13.722;2022-08-21T00:55:12;126.35;;;53.88;;
48263;SDS011;34086;51.076;13.722;2022-08-21T00:56:13;115.47;;;52.97;;
48263;SDS011;34086;51.076;13.722;2022-08-21T00:57:16;171.95;;;61.53;;
48263;SDS011;34086;51.076;13.722;2022-08-21T00:58:24;105.47;;;50.47;;
48263;SDS011;34086;51.076;13.722;2022-08-21T00:59:28;124.53;;;55.40;;
48263;SDS011;34086;51.076;13.722;2022-08-21T01:00:34;150.20;;;58.97;;
48263;SDS011;34086;51.076;13.722;2022-08-21T01:01:38;214.43;;;65.40;;
48263;SDS011;34086;51.076;13.722;2022-08-21T01:02:38;143.93;;;60.25;;
48263;SDS011;34086;51.076;13.722;2022-08-21T01:03:40;125.43;;;57.45;;
48263;SDS011;34086;51.076;13.722;2022-08-21T01:04:40;114.38;;;55.42;;
48263;SDS011;34086;51.076;13.722;2022-08-21T01:05:41;142.98;;;60.85;;
48263;SDS011;34086;51.076;13.722;2022-08-21T01:06:43;106.28;;;55.65;;
48263;SDS011;34086;51.076;13.722;2022-08-21T01:07:45;213.05;;;69.38;;
48263;SDS011;34086;51.076;13.722;2022-08-21T01:08:45;117.15;;;60.33;;
48263;SDS011;34086;51.076;13.722;2022-08-21T01:09:46;115.72;;;58.63;;
48263;SDS011;34086;51.076;13.722;2022-08-21T01:10:48;219.38;;;68.65;;
48263;SDS011;34086;51.076;13.722;2022-08-21T01:11:49;129.77;;;59.63;;
48263;SDS011;34086;51.076;13.722;2022-08-21T01:12:51;128.68;;;58.55;;
48263;SDS011;34086;51.076;13.722;2022-08-21T01:13:54;108.93;;;55.30;;
48263;SDS011;34086;51.076;13.722;2022-08-21T01:14:55;118.50;;;58.58;;
48263;SDS011;34086;51.076;13.722;2022-08-21T01:15:57;93.00;;;51.72;;
48263;SDS011;34086;51.076;13.722;2022-08-21T01:16:59;227.32;;;58.83;;
48263;SDS011;34086;51.076;13.722;2022-08-21T01:18:03;89.55;;;48.05;;
48263;SDS011;34086;51.076;13.722;2022-08-21T01:19:07;78.63;;;42.15;;
48263;SDS011;34086;51.076;13.722;2022-08-21T01:20:09;79.20;;;42.53;;
48263;SDS011;34086;51.076;13.722;2022-08-21T01:21:13;70.35;;;40.63;;
48263;SDS011;34086;51.076;13.722;2022-08-21T01:22:18;68.18;;;38.53;;
48263;SDS011;34086;51.076;13.722;2022-08-21T01:23:19;77.30;;;39.85;;
48263;SDS011;34086;51.076;13.722;2022-08-21T01:24:20;75.47;;;36.67;;
48263;SDS011;34086;51.076;13.722;2022-08-21T01:25:21;129.65;;;41.95;;
48263;SDS011;34086;51.076;13.722;2022-08-21T01:26:32;53.78;;;32.67;;
48263;SDS011;34086;51.076;13.722;2022-08-21T01:27:35;55.88;;;31.30;;
48263;SDS011;34086;51.076;13.722;2022-08-21T01:28:45;47.90;;;28.48;;
48263;SDS011;34086;51.076;13.722;2022-08-21T01:29:58;51.83;;;27.45;;
48263;SDS011;34086;51.076;13.722;2022-08-21T01:31:05;40.80;;;26.35;;
48263;SDS011;34086;51.076;13.722;2022-08-21T01:32:08;51.72;;;28.10;;
48263;SDS011;34086;51.076;13.722;2022-08-21T01:33:12;60.95;;;31.40;;
48263;SDS011;34086;51.076;13.722;2022-08-21T01:34:14;52.58;;;29.80;;
48263;SDS011;34086;51.076;13.722;2022-08-21T01:35:16;52.95;;;29.10;;
48263;SDS011;34086;51.076;13.722;2022-08-21T01:36:18;45.22;;;27.23;;
48263;SDS011;34086;51.076;13.722;2022-08-21T01:37:19;69.13;;;31.58;;
48263;SDS011;34086;51.076;13.722;2022-08-21T01:38:21;46.60;;;28.40;;
48263;SDS011;34086;51.076;13.722;2022-08-21T01:39:22;64.78;;;30.33;;
48263;SDS011;34086;51.076;13.722;2022-08-21T01:40:23;44.78;;;27.80;;
48263;SDS011;34086;51.076;13.722;2022-08-21T01:41:24;40.92;;;25.33;;
48263;SDS011;34086;51.076;13.722;2022-08-21T01:42:24;42.65;;;26.05;;
48263;SDS011;34086;51.076;13.722;2022-08-21T01:43:25;40.85;;;24.13;;
48263;SDS011;34086;51.076;13.722;2022-08-21T01:44:26;38.75;;;23.45;;
48263;SDS011;34086;51.076;13.722;2022-08-21T01:45:27;40.28;;;22.65;;
48263;SDS011;34086;51.076;13.722;2022-08-21T01:46:28;36.75;;;21.27;;
48263;SDS011;34086;51.076;13.722;2022-08-21T01:47:28;54.40;;;28.13;;
48263;SDS011;34086;51.076;13.722;2022-08-21T01:48:29;46.08;;;26.15;;
48263;SDS011;34086;51.076;13.722;2022-08-21T01:49:30;45.42;;;25.70;;
48263;SDS011;34086;51.076;13.722;2022-08-21T01:50:31;34.50;;;22.23;;
48263;SDS011;34086;51.076;13.722;2022-08-21T01:51:32;38.35;;;23.60;;
48263;SDS011;34086;51.076;13.722;2022-08-21T01:52:32;47.40;;;25.90;;
48263;SDS011;34086;51.076;13.722;2022-08-21T01:53:34;51.78;;;26.77;;
48263;SDS011;34086;51.076;13.722;2022-08-21T01:54:37;49.38;;;28.33;;
48263;SDS011;34086;51.076;13.722;2022-08-21T01:55:38;44.38;;;26.67;;
48263;SDS011;34086;51.076;13.722;2022-08-21T01:56:40;50.53;;;27.65;;
48263;SDS011;34086;51.076;13.722;2022-08-21T01:57:43;48.15;;;26.98;;
48263;SDS011;34086;51.076;13.722;2022-08-21T01:58:45;43.05;;;24.83;;
48263;SDS011;34086;51.076;13.722;2022-08-21T01:59:47;45.50;;;24.65;;
48263;SDS011;34086;51.076;13.722;2022-08-21T02:00:47;38.55;;;23.33;;
48263;SDS011;34086;51.076;13.722;2022-08-21T02:01:53;36.40;;;21.92;;
48263;SDS011;34086;51.076;13.722;2022-08-21T02:02:55;35.30;;;21.20;;
48263;SDS011;34086;51.076;13.722;2022-08-21T02:03:55;34.33;;;21.13;;
48263;SDS011;34086;51.076;13.722;2022-08-21T02:04:56;33.40;;;20.30;;
48263;SDS011;34086;51.076;13.722;2022-08-21T02:05:57;30.30;;;19.20;;
48263;SDS011;34086;51.076;13.722;2022-08-21T02:06:57;25.23;;;17.55;;
48263;SDS011;34086;51.076;13.722;2022-08-21T02:08:00;25.90;;;17.88;;
48263;SDS011;34086;51.076;13.722;2022-08-21T02:09:03;29.05;;;18.48;;
48263;SDS011;34086;51.076;13.722;2022-08-21T02:10:05;25.70;;;16.83;;
48263;SDS011;34086;51.076;13.722;2022-08-21T02:11:08;27.75;;;17.25;;
48263;SDS011;34086;51.076;13.722;2022-08-21T02:12:09;25.73;;;17.13;;
48263;SDS011;34086;51.076;13.722;2022-08-21T02:13:10;27.25;;;17.50;;
48263;SDS011;34086;51.076;13.722;2022-08-21T02:14:13;25.35;;;17.00;;
48263;SDS011;34086;51.076;13.722;2022-08-21T02:15:15;22.45;;;16.00;;
48263;SDS011;34086;51.076;13.722;2022-08-21T02:16:17;25.98;;;17.27;;
48263;SDS011;34086;51.076;13.722;2022-08-21T02:17:17;22.55;;;16.25;;
48263;SDS011;34086;51.076;13.722;2022-08-21T02:18:18;24.95;;;16.10;;
48263;SDS011;34086;51.076;13.722;2022-08-21T02:19:18;22.23;;;15.75;;
48263;SDS011;34086;51.076;13.722;2022-08-21T02:20:30;24.38;;;15.98;;
48263;SDS011;34086;51.076;13.722;2022-08-21T02:21:33;24.60;;;16.88;;
48263;SDS011;34086;51.076;13.722;2022-08-21T02:22:33;25.95;;;17.77;;
48263;SDS011;34086;51.076;13.722;2022-08-21T02:23:34;24.65;;;16.88;;
48263;SDS011;34086;51.076;13.722;2022-08-21T02:24:36;28.25;;;17.75;;
48263;SDS011;34086;51.076;13.722;2022-08-21T02:25:37;24.13;;;16.17;;
48263;SDS011;34086;51.076;13.722;2022-08-21T02:26:38;22.25;;;16.25;;
48263;SDS011;34086;51.076;13.722;2022-08-21T02:27:40;24.42;;;16.10;;
48263;SDS011;34086;51.076;13.722;2022-08-21T02:28:42;28.92;;;17.63;;
48263;SDS011;34086;51.076;13.722;2022-08-21T02:29:43;28.23;;;17.38;;
48263;SDS011;34086;51.076;13.722;2022-08-21T02:30:47;26.75;;;17.67;;
48263;SDS011;34086;51.076;13.722;2022-08-21T02:31:48;27.13;;;17.20;;
48263;SDS011;34086;51.076;13.722;2022-08-21T02:32:48;24.88;;;16.92;;
48263;SDS011;34086;51.076;13.722;2022-08-21T02:33:50;25.20;;;16.80;;
48263;SDS011;34086;51.076;13.722;2022-08-21T02:34:51;29.73;;;18.00;;
48263;SDS011;34086;51.076;13.722;2022-08-21T02:35:52;25.13;;;16.75;;
48263;SDS011;34086;51.076;13.722;2022-08-21T02:36:53;27.38;;;17.63;;
48263;SDS011;34086;51.076;13.722;2022-08-21T02:37:55;30.88;;;18.02;;
48263;SDS011;34086;51.076;13.722;2022-08-21T02:38:57;24.17;;;16.38;;
48263;SDS011;34086;51.076;13.722;2022-08-21T02:39:59;35.17;;;20.55;;
48263;SDS011;34086;51.076;13.722;2022-08-21T02:41:01;32.95;;;20.48;;
48263;SDS011;34086;51.076;13.722;2022-08-21T02:42:01;31.77;;;20.70;;
48263;SDS011;34086;51.076;13.722;2022-08-21T02:43:03;31.48;;;20.85;;
48263;SDS011;34086;51.076;13.722;2022-08-21T02:44:05;34.97;;;21.13;;
48263;SDS011;34086;51.076;13.722;2022-08-21T02:45:06;35.25;;;20.58;;
48263;SDS011;34086;51.076;13.722;2022-08-21T02:46:08;29.80;;;20.02;;
48263;SDS011;34086;51.076;13.722;2022-08-21T02:47:11;29.83;;;19.33;;
48263;SDS011;34086;51.076;13.722;2022-08-21T02:48:16;35.30;;;21.83;;
48263;SDS011;34086;51.076;13.722;2022-08-21T02:49:19;33.67;;;20.45;;
48263;SDS011;34086;51.076;13.722;2022-08-21T02:50:21;29.40;;;19.77;;
48263;SDS011;34086;51.076;13.722;2022-08-21T02:51:27;28.70;;;18.92;;
48263;SDS011;34086;51.076;13.722;2022-08-21T02:52:28;29.88;;;19.33;;
48263;SDS011;34086;51.076;13.722;2022-08-21T02:53:29;31.38;;;19.15;;
48263;SDS011;34086;51.076;13.722;2022-08-21T02:54:31;29.55;;;18.90;;
48263;SDS011;34086;51.076;13.722;2022-08-21T02:55:32;30.65;;;19.42;;
48263;SDS011;34086;51.076;13.722;2022-08-21T02:56:35;29.92;;;19.48;;
48263;SDS011;34086;51.076;13.722;2022-08-21T02:57:36;34.40;;;20.73;;
48263;SDS011;34086;51.076;13.722;2022-08-21T02:58:39;33.35;;;20.67;;
48263;SDS011;34086;51.076;13.722;2022-08-21T02:59:41;34.47;;;20.70;;
48263;SDS011;34086;51.076;13.722;2022-08-21T03:00:42;35.80;;;21.58;;
48263;SDS011;34086;51.076;13.722;2022-08-21T03:01:43;35.22;;;21.95;;
48263;SDS011;34086;51.076;13.722;2022-08-21T03:02:44;37.13;;;21.90;;
48263;SDS011;34086;51.076;13.722;2022-08-21T03:03:46;32.67;;;21.50;;
48263;SDS011;34086;51.076;13.722;2022-08-21T03:04:50;33.63;;;21.45;;
48263;SDS011;34086;51.076;13.722;2022-08-21T03:05:51;31.75;;;21.52;;
48263;SDS011;34086;51.076;13.722;2022-08-21T03:06:52;36.67;;;23.15;;
48263;SDS011;34086;51.076;13.722;2022-08-21T03:07:52;36.35;;;22.08;;
48263;SDS011;34086;51.076;13.722;2022-08-21T03:08:53;32.40;;;21.80;;
48263;SDS011;34086;51.076;13.722;2022-08-21T03:09:54;36.97;;;22.75;;
48263;SDS011;34086;51.076;13.722;2022-08-21T03:10:55;32.95;;;21.27;;
48263;SDS011;34086;51.076;13.722;2022-08-21T03:11:56;36.97;;;22.85;;
48263;SDS011;34086;51.076;13.722;2022-08-21T03:12:57;33.92;;;21.90;;
48263;SDS011;34086;51.076;13.722;2022-08-21T03:13:58;30.60;;;20.77;;
48263;SDS011;34086;51.076;13.722;2022-08-21T03:14:59;30.73;;;20.55;;
48263;SDS011;34086;51.076;13.722;2022-08-21T03:16:00;30.02;;;20.00;;
48263;SDS011;34086;51.076;13.722;2022-08-21T03:17:00;34.63;;;21.58;;
48263;SDS011;34086;51.076;13.722;2022-08-21T03:18:02;33.55;;;21.52;;
48263;SDS011;34086;51.076;13.722;2022-08-21T03:19:04;34.97;;;21.55;;
48263;SDS011;34086;51.076;13.722;2022-08-21T03:20:05;34.60;;;22.05;;
48263;SDS011;34086;51.076;13.722;2022-08-21T03:21:08;38.63;;;22.25;;
48263;SDS011;34086;51.076;13.722;2022-08-21T03:22:08;36.13;;;22.08;;
48263;SDS011;34086;51.076;13.722;2022-08-21T03:23:09;32.65;;;21.33;;
48263;SDS011;34086;51.076;13.722;2022-08-21T03:24:10;29.67;;;20.60;;
48263;SDS011;34086;51.076;13.722;2022-08-21T03:25:10;31.60;;;20.98;;
48263;SDS011;34086;51.076;13.722;2022-08-21T03:26:11;35.80;;;21.40;;
48263;SDS011;34086;51.076;13.722;2022-08-21T03:27:12;30.50;;;20.25;;
48263;SDS011;34086;51.076;13.722;2022-08-21T03:28:14;36.33;;;22.17;;
48263;SDS011;34086;51.076;13.722;2022-08-21T03:29:16;35.58;;;21.55;;
48263;SDS011;34086;51.076;13.722;2022-08-21T03:30:18;36.92;;;21.00;;
48263;SDS011;34086;51.076;13.722;2022-08-21T03:31:20;31.42;;;20.13;;
48263;SDS011;34086;51.076;13.722;2022-08-21T03:32:22;35.00;;;20.83;;
48263;SDS011;34086;51.076;13.722;2022-08-21T03:33:23;27.40;;;19.38;;
48263;SDS011;34086;51.076;13.722;2022-08-21T03:34:24;30.02;;;20.38;;
48263;SDS011;34086;51.076;13.722;2022-08-21T03:35:25;74.45;;;34.70;;
48263;SDS011;34086;51.076;13.722;2022-08-21T03:36:26;79.15;;;36.28;;
48263;SDS011;34086;51.076;13.722;2022-08-21T03:37:27;119.70;;;41.88;;
48263;SDS011;34086;51.076;13.722;2022-08-21T03:38:28;53.50;;;33.33;;
48263;SDS011;34086;51.076;13.722;2022-08-21T03:39:30;59.30;;;33.38;;
48263;SDS011;34086;51.076;13.722;2022-08-21T03:40:31;63.35;;;34.20;;
48263;SDS011;34086;51.076;13.722;2022-08-21T03:41:32;57.40;;;32.45;;
48263;SDS011;34086;51.076;13.722;2022-08-21T03:42:32;63.30;;;33.00;;
48263;SDS011;34086;51.076;13.722;2022-08-21T03:43:33;54.50;;;30.23;;
48263;SDS011;34086;51.076;13.722;2022-08-21T03:44:34;49.75;;;28.75;;
48263;SDS011;34086;51.076;13.722;2022-08-21T03:45:35;54.08;;;28.88;;
48263;SDS011;34086;51.076;13.722;2022-08-21T03:46:37;45.05;;;26.92;;
48263;SDS011;34086;51.076;13.722;2022-08-21T03:47:37;51.42;;;28.50;;
48263;SDS011;34086;51.076;13.722;2022-08-21T03:48:38;55.25;;;30.90;;
48263;SDS011;34086;51.076;13.722;2022-08-21T03:49:39;51.45;;;29.27;;
48263;SDS011;34086;51.076;13.722;2022-08-21T03:50:41;52.75;;;29.05;;
48263;SDS011;34086;51.076;13.722;2022-08-21T03:51:43;52.47;;;28.27;;
48263;SDS011;34086;51.076;13.722;2022-08-21T03:52:44;51.63;;;26.77;;
48263;SDS011;34086;51.076;13.722;2022-08-21T03:53:45;46.70;;;26.50;;
48263;SDS011;34086;51.076;13.722;2022-08-21T03:54:45;46.42;;;25.65;;
48263;SDS011;34086;51.076;13.722;2022-08-21T03:55:47;53.33;;;27.40;;
48263;SDS011;34086;51.076;13.722;2022-08-21T03:56:49;43.63;;;24.50;;
48263;SDS011;34086;51.076;13.722;2022-08-21T03:57:50;46.03;;;24.92;;
48263;SDS011;34086;51.076;13.722;2022-08-21T03:58:50;47.13;;;25.15;;
48263;SDS011;34086;51.076;13.722;2022-08-21T03:59:51;45.40;;;25.10;;
48263;SDS011;34086;51.076;13.722;2022-08-21T04:00:53;46.03;;;24.67;;
48263;SDS011;34086;51.076;13.722;2022-08-21T04:01:58;39.35;;;22.83;;
48263;SDS011;34086;51.076;13.722;2022-08-21T04:03:00;46.13;;;24.15;;
48263;SDS011;34086;51.076;13.722;2022-08-21T04:04:01;36.95;;;22.77;;
48263;SDS011;34086;51.076;13.722;2022-08-21T04:05:03;39.17;;;23.77;;
48263;SDS011;34086;51.076;13.722;2022-08-21T04:06:05;40.92;;;23.73;;
48263;SDS011;34086;51.076;13.722;2022-08-21T04:07:06;40.47;;;23.58;;
48263;SDS011;34086;51.076;13.722;2022-08-21T04:08:06;45.70;;;26.15;;
48263;SDS011;34086;51.076;13.722;2022-08-21T04:09:08;44.03;;;25.98;;
48263;SDS011;34086;51.076;13.722;2022-08-21T04:10:08;50.25;;;28.17;;
48263;SDS011;34086;51.076;13.722;2022-08-21T04:11:09;60.42;;;31.50;;
48263;SDS011;34086;51.076;13.722;2022-08-21T04:12:10;53.33;;;31.33;;
48263;SDS011;34086;51.076;13.722;2022-08-21T04:13:11;70.15;;;35.60;;
48263;SDS011;34086;51.076;13.722;2022-08-21T04:14:12;62.97;;;33.78;;
48263;SDS011;34086;51.076;13.722;2022-08-21T04:15:14;61.38;;;32.08;;
48263;SDS011;34086;51.076;13.722;2022-08-21T04:16:14;58.53;;;31.73;;
48263;SDS011;34086;51.076;13.722;2022-08-21T04:17:15;51.08;;;29.27;;
48263;SDS011;34086;51.076;13.722;2022-08-21T04:18:16;47.53;;;28.05;;
48263;SDS011;34086;51.076;13.722;2022-08-21T04:19:17;48.58;;;27.52;;
48263;SDS011;34086;51.076;13.722;2022-08-21T04:20:19;49.63;;;27.98;;
48263;SDS011;34086;51.076;13.722;2022-08-21T04:21:21;47.85;;;25.92;;
48263;SDS011;34086;51.076;13.722;2022-08-21T04:22:23;53.90;;;27.58;;
48263;SDS011;34086;51.076;13.722;2022-08-21T04:23:23;48.47;;;26.08;;
48263;SDS011;34086;51.076;13.722;2022-08-21T04:24:25;46.03;;;25.20;;
48263;SDS011;34086;51.076;13.722;2022-08-21T04:25:26;47.30;;;25.15;;
48263;SDS011;34086;51.076;13.722;2022-08-21T04:26:27;41.03;;;23.75;;
48263;SDS011;34086;51.076;13.722;2022-08-21T04:27:27;39.70;;;23.65;;
48263;SDS011;34086;51.076;13.722;2022-08-21T04:28:28;40.50;;;24.42;;
48263;SDS011;34086;51.076;13.722;2022-08-21T04:29:28;37.15;;;22.80;;
48263;SDS011;34086;51.076;13.722;2022-08-21T04:30:29;38.38;;;23.23;;
48263;SDS011;34086;51.076;13.722;2022-08-21T04:31:30;35.50;;;22.52;;
48263;SDS011;34086;51.076;13.722;2022-08-21T04:32:31;48.13;;;26.58;;
48263;SDS011;34086;51.076;13.722;2022-08-21T04:33:31;46.08;;;25.95;;
48263;SDS011;34086;51.076;13.722;2022-08-21T04:34:32;47.97;;;28.05;;
48263;SDS011;34086;51.076;13.722;2022-08-21T04:35:32;46.22;;;26.98;;
48263;SDS011;34086;51.076;13.722;2022-08-21T04:36:33;45.88;;;27.40;;
48263;SDS011;34086;51.076;13.722;2022-08-21T04:37:34;44.85;;;26.50;;
48263;SDS011;34086;51.076;13.722;2022-08-21T04:38:35;45.47;;;26.17;;
48263;SDS011;34086;51.076;13.722;2022-08-21T04:39:35;43.63;;;25.52;;
48263;SDS011;34086;51.076;13.722;2022-08-21T04:40:36;45.42;;;25.33;;
48263;SDS011;34086;51.076;13.722;2022-08-21T04:41:37;43.38;;;24.33;;
48263;SDS011;34086;51.076;13.722;2022-08-21T04:42:41;40.35;;;23.85;;
48263;SDS011;34086;51.076;13.722;2022-08-21T04:43:44;36.08;;;22.17;;
48263;SDS011;34086;51.076;13.722;2022-08-21T04:44:44;38.22;;;21.60;;
48263;SDS011;34086;51.076;13.722;2022-08-21T04:45:48;33.17;;;21.58;;
48263;SDS011;34086;51.076;13.722;2022-08-21T04:46:50;36.67;;;22.27;;
48263;SDS011;34086;51.076;13.722;2022-08-21T04:47:51;33.95;;;21.10;;
48263;SDS011;34086;51.076;13.722;2022-08-21T04:48:56;36.17;;;21.75;;
48263;SDS011;34086;51.076;13.722;2022-08-21T04:49:57;39.15;;;22.20;;
48263;SDS011;34086;51.076;13.722;2022-08-21T04:51:12;39.13;;;22.65;;
48263;SDS011;34086;51.076;13.722;2022-08-21T04:52:20;34.38;;;20.67;;
48263;SDS011;34086;51.076;13.722;2022-08-21T04:53:24;31.27;;;20.73;;
48263;SDS011;34086;51.076;13.722;2022-08-21T04:54:52;34.17;;;21.27;;
48263;SDS011;34086;51.076;13.722;2022-08-21T04:55:53;40.00;;;21.90;;
48263;SDS011;34086;51.076;13.722;2022-08-21T04:56:59;32.97;;;20.90;;
48263;SDS011;34086;51.076;13.722;2022-08-21T04:58:05;34.38;;;20.98;;
48263;SDS011;34086;51.076;13.722;2022-08-21T04:59:11;34.60;;;21.27;;
48263;SDS011;34086;51.076;13.722;2022-08-21T05:00:16;35.53;;;21.90;;
48263;SDS011;34086;51.076;13.722;2022-08-21T05:01:19;36.42;;;22.48;;
48263;SDS011;34086;51.076;13.722;2022-08-21T05:02:23;37.75;;;22.38;;
48263;SDS011;34086;51.076;13.722;2022-08-21T05:03:24;38.42;;;22.48;;
48263;SDS011;34086;51.076;13.722;2022-08-21T05:04:26;42.28;;;23.27;;
48263;SDS011;34086;51.076;13.722;2022-08-21T05:05:30;40.08;;;23.20;;
48263;SDS011;34086;51.076;13.722;2022-08-21T05:06:31;35.75;;;22.65;;
48263;SDS011;34086;51.076;13.722;2022-08-21T05:07:35;38.78;;;23.42;;
48263;SDS011;34086;51.076;13.722;2022-08-21T05:08:36;43.25;;;24.70;;
48263;SDS011;34086;51.076;13.722;2022-08-21T05:09:39;43.30;;;24.85;;
48263;SDS011;34086;51.076;13.722;2022-08-21T05:10:41;38.55;;;23.83;;
48263;SDS011;34086;51.076;13.722;2022-08-21T05:11:44;36.80;;;22.58;;
48263;SDS011;34086;51.076;13.722;2022-08-21T05:12:45;40.63;;;22.88;;
48263;SDS011;34086;51.076;13.722;2022-08-21T05:13:46;33.40;;;21.80;;
48263;SDS011;34086;51.076;13.722;2022-08-21T05:14:46;35.10;;;22.05;;
48263;SDS011;34086;51.076;13.722;2022-08-21T05:15:47;35.63;;;21.85;;
48263;SDS011;34086;51.076;13.722;2022-08-21T05:16:48;35.13;;;22.08;;
48263;SDS011;34086;51.076;13.722;2022-08-21T05:17:49;38.13;;;23.15;;
48263;SDS011;34086;51.076;13.722;2022-08-21T05:18:50;34.70;;;22.13;;
48263;SDS011;34086;51.076;13.722;2022-08-21T05:19:51;37.28;;;22.33;;
48263;SDS011;34086;51.076;13.722;2022-08-21T05:20:52;37.15;;;22.15;;
48263;SDS011;34086;51.076;13.722;2022-08-21T05:21:53;34.38;;;21.58;;
48263;SDS011;34086;51.076;13.722;2022-08-21T05:22:54;36.40;;;23.13;;
48263;SDS011;34086;51.076;13.722;2022-08-21T05:23:54;34.08;;;21.48;;
48263;SDS011;34086;51.076;13.722;2022-08-21T05:24:56;34.70;;;22.17;;
48263;SDS011;34086;51.076;13.722;2022-08-21T05:25:57;41.28;;;23.00;;
48263;SDS011;34086;51.076;13.722;2022-08-21T05:26:58;42.83;;;23.50;;
48263;SDS011;34086;51.076;13.722;2022-08-21T05:27:59;40.90;;;23.75;;
48263;SDS011;34086;51.076;13.722;2022-08-21T05:28:59;35.40;;;22.10;;
48263;SDS011;34086;51.076;13.722;2022-08-21T05:30:01;33.00;;;21.67;;
48263;SDS011;34086;51.076;13.722;2022-08-21T05:31:03;44.38;;;24.58;;
48263;SDS011;34086;51.076;13.722;2022-08-21T05:32:10;39.10;;;23.10;;
48263;SDS011;34086;51.076;13.722;2022-08-21T05:33:13;38.00;;;23.10;;
48263;SDS011;34086;51.076;13.722;2022-08-21T05:34:14;44.72;;;23.75;;
48263;SDS011;34086;51.076;13.722;2022-08-21T05:35:18;35.20;;;21.85;;
48263;SDS011;34086;51.076;13.722;2022-08-21T05:36:19;35.53;;;23.00;;
48263;SDS011;34086;51.076;13.722;2022-08-21T05:37:20;37.85;;;23.15;;
48263;SDS011;34086;51.076;13.722;2022-08-21T05:38:24;42.38;;;23.05;;
48263;SDS011;34086;51.076;13.722;2022-08-21T05:39:27;35.95;;;22.65;;
48263;SDS011;34086;51.076;13.722;2022-08-21T05:40:27;45.90;;;26.88;;
48263;SDS011;34086;51.076;13.722;2022-08-21T05:41:28;36.28;;;22.83;;
48263;SDS011;34086;51.076;13.722;2022-08-21T05:42:29;46.33;;;25.88;;
48263;SDS011;34086;51.076;13.722;2022-08-21T05:43:30;44.58;;;24.92;;
48263;SDS011;34086;51.076;13.722;2022-08-21T05:44:32;40.67;;;24.45;;
48263;SDS011;34086;51.076;13.722;2022-08-21T05:45:33;41.40;;;24.95;;
48263;SDS011;34086;51.076;13.722;2022-08-21T05:46:34;39.60;;;24.52;;
48263;SDS011;34086;51.076;13.722;2022-08-21T05:47:37;45.83;;;27.17;;
48263;SDS011;34086;51.076;13.722;2022-08-21T05:48:41;89.60;;;43.85;;
48263;SDS011;34086;51.076;13.722;2022-08-21T05:49:41;64.22;;;36.33;;
48263;SDS011;34086;51.076;13.722;2022-08-21T05:50:42;83.30;;;40.85;;
48263;SDS011;34086;51.076;13.722;2022-08-21T05:51:44;103.07;;;47.03;;
48263;SDS011;34086;51.076;13.722;2022-08-21T05:52:45;113.18;;;48.13;;
48263;SDS011;34086;51.076;13.722;2022-08-21T05:53:45;81.97;;;44.40;;
48263;SDS011;34086;51.076;13.722;2022-08-21T05:54:46;86.78;;;44.72;;
48263;SDS011;34086;51.076;13.722;2022-08-21T05:55:47;83.70;;;43.13;;